sensor_id;sensor_type;location;lat;lon;timestamp;P1;durP1;ratioP1;P2;durP2;ratioP2
4650;SDS011;2338;49.602;8.722;2023-09-19T00:02:17;1.83;;;1.13;;
4650;SDS011;2338;49.602;8.722;2023-09-19T00:05:03;3.87;;;1.27;;
4650;SDS011;2338;49.602;8.722;2023-09-19T00:07:49;2.97;;;1.20;;
4650;SDS011;2338;49.602;8.722;2023-09-19T00:10:38;4.30;;;1.90;;
4650;SDS011;2338;49.602;8.722;2023-09-19T00:13:25;1.70;;;0.93;;
4650;SDS011;2338;49.602;8.722;2023-09-19T00:16:12;3.27;;;1.50;;
4650;SDS011;2338;49.602;8.722;2023-09-19T00:19:00;3.03;;;1.47;;
4650;SDS011;2338;49.602;8.722;2023-09-19T00:21:52;4.70;;;1.47;;
4650;SDS011;2338;49.602;8.722;2023-09-19T00:24:38;4.83;;;1.90;;
4650;SDS011;2338;49.602;8.722;2023-09-19T00:27:24;3.73;;;1.50;;
4650;SDS011;2338;49.602;8.722;2023-09-19T00:30:10;6.07;;;1.33;;
4650;SDS011;2338;49.602;8.722;2023-09-19T00:32:59;2.90;;;1.13;;
4650;SDS011;2338;49.602;8.722;2023-09-19T00:35:51;2.27;;;1.20;;
4650;SDS011;2338;49.602;8.722;2023-09-19T00:38:38;4.03;;;1.40;;
4650;SDS011;2338;49.602;8.722;2023-09-19T00:41:24;3.23;;;1.40;;
4650;SDS011;2338;49.602;8.722;2023-09-19T00:44:09;3.53;;;1.60;;
4650;SDS011;2338;49.602;8.722;2023-09-19T00:46:55;4.40;;;2.00;;
4650;SDS011;2338;49.602;8.722;2023-09-19T00:49:44;2.90;;;1.20;;
4650;SDS011;2338;49.602;8.722;2023-09-19T00:52:34;2.30;;;1.40;;
4650;SDS011;2338;49.602;8.722;2023-09-19T00:55:22;2.87;;;1.40;;
4650;SDS011;2338;49.602;8.722;2023-09-19T00:58:09;2.80;;;1.40;;
4650;SDS011;2338;49.602;8.722;2023-09-19T01:00:55;4.07;;;1.53;;
4650;SDS011;2338;49.602;8.722;2023-09-19T01:03:41;3.83;;;1.33;;
4650;SDS011;2338;49.602;8.722;2023-09-19T01:06:27;4.90;;;1.80;;
4650;SDS011;2338;49.602;8.722;2023-09-19T01:09:14;2.70;;;1.57;;
4650;SDS011;2338;49.602;8.722;2023-09-19T01:12:01;3.30;;;1.50;;
4650;SDS011;2338;49.602;8.722;2023-09-19T01:14:50;3.60;;;1.57;;
4650;SDS011;2338;49.602;8.722;2023-09-19T01:17:43;5.67;;;1.73;;
4650;SDS011;2338;49.602;8.722;2023-09-19T01:20:37;3.70;;;1.93;;
4650;SDS011;2338;49.602;8.722;2023-09-19T01:23:39;5.23;;;1.60;;
4650;SDS011;2338;49.602;8.722;2023-09-19T01:26:47;4.20;;;1.43;;
4650;SDS011;2338;49.602;8.722;2023-09-19T01:29:52;3.20;;;1.73;;
4650;SDS011;2338;49.602;8.722;2023-09-19T01:32:40;3.80;;;1.70;;
4650;SDS011;2338;49.602;8.722;2023-09-19T01:35:30;3.77;;;1.53;;
4650;SDS011;2338;49.602;8.722;2023-09-19T01:38:16;4.27;;;1.40;;
4650;SDS011;2338;49.602;8.722;2023-09-19T01:41:05;4.77;;;1.60;;
4650;SDS011;2338;49.602;8.722;2023-09-19T01:43:56;2.50;;;1.50;;
4650;SDS011;2338;49.602;8.722;2023-09-19T01:46:44;3.90;;;1.30;;
4650;SDS011;2338;49.602;8.722;2023-09-19T01:49:36;5.00;;;1.77;;
4650;SDS011;2338;49.602;8.722;2023-09-19T01:52:30;2.97;;;1.70;;
4650;SDS011;2338;49.602;8.722;2023-09-19T01:55:21;5.20;;;2.10;;
4650;SDS011;2338;49.602;8.722;2023-09-19T01:58:13;5.40;;;2.03;;
4650;SDS011;2338;49.602;8.722;2023-09-19T02:01:04;3.30;;;1.90;;
4650;SDS011;2338;49.602;8.722;2023-09-19T02:03:51;4.93;;;1.93;;
4650;SDS011;2338;49.602;8.722;2023-09-19T02:06:40;4.30;;;2.10;;
4650;SDS011;2338;49.602;8.722;2023-09-19T02:09:26;3.87;;;1.80;;
4650;SDS011;2338;49.602;8.722;2023-09-19T02:12:12;4.60;;;1.70;;
4650;SDS011;2338;49.602;8.722;2023-09-19T02:14:59;4.80;;;1.70;;
4650;SDS011;2338;49.602;8.722;2023-09-19T02:17:45;3.67;;;1.90;;
4650;SDS011;2338;49.602;8.722;2023-09-19T02:20:30;4.07;;;2.00;;
4650;SDS011;2338;49.602;8.722;2023-09-19T02:23:18;3.00;;;1.87;;
4650;SDS011;2338;49.602;8.722;2023-09-19T02:26:03;4.23;;;1.80;;
4650;SDS011;2338;49.602;8.722;2023-09-19T02:28:49;9.73;;;2.03;;
4650;SDS011;2338;49.602;8.722;2023-09-19T02:31:36;5.23;;;1.83;;
4650;SDS011;2338;49.602;8.722;2023-09-19T02:34:22;2.93;;;2.00;;
4650;SDS011;2338;49.602;8.722;2023-09-19T02:37:09;4.10;;;1.80;;
4650;SDS011;2338;49.602;8.722;2023-09-19T02:39:58;3.53;;;2.33;;
4650;SDS011;2338;49.602;8.722;2023-09-19T02:42:44;11.50;;;3.00;;
4650;SDS011;2338;49.602;8.722;2023-09-19T02:45:32;6.63;;;3.20;;
4650;SDS011;2338;49.602;8.722;2023-09-19T02:48:19;2.63;;;1.77;;
4650;SDS011;2338;49.602;8.722;2023-09-19T02:51:05;3.97;;;2.03;;
4650;SDS011;2338;49.602;8.722;2023-09-19T02:53:51;3.57;;;1.90;;
4650;SDS011;2338;49.602;8.722;2023-09-19T02:56:40;4.20;;;2.13;;
4650;SDS011;2338;49.602;8.722;2023-09-19T02:59:25;4.20;;;2.63;;
4650;SDS011;2338;49.602;8.722;2023-09-19T03:02:12;2.37;;;1.57;;
4650;SDS011;2338;49.602;8.722;2023-09-19T03:04:58;5.20;;;1.63;;
4650;SDS011;2338;49.602;8.722;2023-09-19T03:07:44;6.43;;;2.00;;
4650;SDS011;2338;49.602;8.722;2023-09-19T03:10:30;10.80;;;2.27;;
4650;SDS011;2338;49.602;8.722;2023-09-19T03:13:18;4.33;;;1.97;;
4650;SDS011;2338;49.602;8.722;2023-09-19T03:16:04;5.73;;;2.20;;
4650;SDS011;2338;49.602;8.722;2023-09-19T03:18:50;6.20;;;2.10;;
4650;SDS011;2338;49.602;8.722;2023-09-19T03:21:36;6.10;;;2.60;;
4650;SDS011;2338;49.602;8.722;2023-09-19T03:24:22;9.23;;;2.27;;
4650;SDS011;2338;49.602;8.722;2023-09-19T03:27:08;3.60;;;2.13;;
4650;SDS011;2338;49.602;8.722;2023-09-19T03:29:56;2.97;;;1.90;;
4650;SDS011;2338;49.602;8.722;2023-09-19T03:32:45;5.30;;;2.63;;
4650;SDS011;2338;49.602;8.722;2023-09-19T03:35:33;5.80;;;2.33;;
4650;SDS011;2338;49.602;8.722;2023-09-19T03:38:20;6.37;;;2.43;;
4650;SDS011;2338;49.602;8.722;2023-09-19T03:41:06;3.50;;;2.30;;
4650;SDS011;2338;49.602;8.722;2023-09-19T03:43:52;4.03;;;2.37;;
4650;SDS011;2338;49.602;8.722;2023-09-19T03:46:40;4.30;;;2.43;;
4650;SDS011;2338;49.602;8.722;2023-09-19T03:49:25;6.43;;;2.03;;
4650;SDS011;2338;49.602;8.722;2023-09-19T03:52:11;6.83;;;2.10;;
4650;SDS011;2338;49.602;8.722;2023-09-19T03:54:58;4.67;;;2.30;;
4650;SDS011;2338;49.602;8.722;2023-09-19T03:57:47;10.80;;;2.10;;
4650;SDS011;2338;49.602;8.722;2023-09-19T04:00:34;5.40;;;2.40;;
4650;SDS011;2338;49.602;8.722;2023-09-19T04:03:20;3.53;;;2.43;;
4650;SDS011;2338;49.602;8.722;2023-09-19T04:06:06;5.40;;;2.63;;
4650;SDS011;2338;49.602;8.722;2023-09-19T04:08:52;9.30;;;2.63;;
4650;SDS011;2338;49.602;8.722;2023-09-19T04:11:38;5.13;;;2.60;;
4650;SDS011;2338;49.602;8.722;2023-09-19T04:14:24;3.63;;;2.87;;
4650;SDS011;2338;49.602;8.722;2023-09-19T04:17:10;3.87;;;2.90;;
4650;SDS011;2338;49.602;8.722;2023-09-19T04:19:56;3.83;;;2.80;;
4650;SDS011;2338;49.602;8.722;2023-09-19T04:22:42;5.40;;;3.57;;
4650;SDS011;2338;49.602;8.722;2023-09-19T04:25:29;6.53;;;3.30;;
4650;SDS011;2338;49.602;8.722;2023-09-19T04:28:15;4.50;;;3.17;;
4650;SDS011;2338;49.602;8.722;2023-09-19T04:31:01;5.10;;;3.63;;
4650;SDS011;2338;49.602;8.722;2023-09-19T04:33:47;7.50;;;4.00;;
4650;SDS011;2338;49.602;8.722;2023-09-19T04:36:34;6.93;;;3.20;;
4650;SDS011;2338;49.602;8.722;2023-09-19T04:39:20;5.10;;;3.63;;
4650;SDS011;2338;49.602;8.722;2023-09-19T04:42:09;5.53;;;3.23;;
4650;SDS011;2338;49.602;8.722;2023-09-19T04:44:58;11.30;;;3.80;;
4650;SDS011;2338;49.602;8.722;2023-09-19T04:47:45;7.13;;;4.03;;
4650;SDS011;2338;49.602;8.722;2023-09-19T04:50:30;7.80;;;4.10;;
4650;SDS011;2338;49.602;8.722;2023-09-19T04:53:18;3.97;;;3.47;;
4650;SDS011;2338;49.602;8.722;2023-09-19T04:56:04;5.20;;;3.03;;
4650;SDS011;2338;49.602;8.722;2023-09-19T04:58:51;5.47;;;4.17;;
4650;SDS011;2338;49.602;8.722;2023-09-19T05:01:37;8.17;;;3.83;;
4650;SDS011;2338;49.602;8.722;2023-09-19T05:04:23;7.20;;;4.37;;
4650;SDS011;2338;49.602;8.722;2023-09-19T05:07:09;5.47;;;3.77;;
4650;SDS011;2338;49.602;8.722;2023-09-19T05:09:56;3.60;;;2.97;;
4650;SDS011;2338;49.602;8.722;2023-09-19T05:12:42;7.07;;;3.30;;
4650;SDS011;2338;49.602;8.722;2023-09-19T05:15:31;6.73;;;4.37;;
4650;SDS011;2338;49.602;8.722;2023-09-19T05:18:16;7.50;;;4.10;;
4650;SDS011;2338;49.602;8.722;2023-09-19T05:21:02;6.90;;;3.43;;
4650;SDS011;2338;49.602;8.722;2023-09-19T05:23:48;6.63;;;3.60;;
4650;SDS011;2338;49.602;8.722;2023-09-19T05:26:37;7.27;;;3.40;;
4650;SDS011;2338;49.602;8.722;2023-09-19T05:29:23;8.37;;;3.23;;
4650;SDS011;2338;49.602;8.722;2023-09-19T05:32:09;5.33;;;3.80;;
4650;SDS011;2338;49.602;8.722;2023-09-19T05:34:55;5.33;;;3.23;;
4650;SDS011;2338;49.602;8.722;2023-09-19T05:37:41;10.93;;;3.60;;
4650;SDS011;2338;49.602;8.722;2023-09-19T05:40:26;6.90;;;4.00;;
4650;SDS011;2338;49.602;8.722;2023-09-19T05:43:17;6.27;;;3.90;;
4650;SDS011;2338;49.602;8.722;2023-09-19T05:46:03;8.63;;;3.70;;
4650;SDS011;2338;49.602;8.722;2023-09-19T05:48:48;5.60;;;3.40;;
4650;SDS011;2338;49.602;8.722;2023-09-19T05:51:34;5.27;;;3.57;;
4650;SDS011;2338;49.602;8.722;2023-09-19T05:54:20;8.23;;;4.17;;
4650;SDS011;2338;49.602;8.722;2023-09-19T05:57:06;7.63;;;3.30;;
4650;SDS011;2338;49.602;8.722;2023-09-19T05:59:53;5.70;;;3.37;;
4650;SDS011;2338;49.602;8.722;2023-09-19T06:02:39;8.23;;;3.67;;
4650;SDS011;2338;49.602;8.722;2023-09-19T06:05:25;4.67;;;2.90;;
4650;SDS011;2338;49.602;8.722;2023-09-19T06:08:14;8.07;;;3.60;;
4650;SDS011;2338;49.602;8.722;2023-09-19T06:11:00;7.73;;;3.03;;
4650;SDS011;2338;49.602;8.722;2023-09-19T06:13:45;5.90;;;3.50;;
4650;SDS011;2338;49.602;8.722;2023-09-19T06:16:33;10.63;;;3.63;;
4650;SDS011;2338;49.602;8.722;2023-09-19T06:19:19;5.27;;;3.03;;
4650;SDS011;2338;49.602;8.722;2023-09-19T06:22:06;11.37;;;3.77;;
4650;SDS011;2338;49.602;8.722;2023-09-19T06:24:52;7.97;;;3.43;;
4650;SDS011;2338;49.602;8.722;2023-09-19T06:27:38;6.50;;;3.17;;
4650;SDS011;2338;49.602;8.722;2023-09-19T06:30:25;7.57;;;3.03;;
4650;SDS011;2338;49.602;8.722;2023-09-19T06:33:14;5.50;;;3.23;;
4650;SDS011;2338;49.602;8.722;2023-09-19T06:36:02;11.80;;;3.67;;
4650;SDS011;2338;49.602;8.722;2023-09-19T06:38:48;4.30;;;3.07;;
4650;SDS011;2338;49.602;8.722;2023-09-19T06:41:35;11.83;;;3.43;;
4650;SDS011;2338;49.602;8.722;2023-09-19T06:44:22;12.23;;;3.20;;
4650;SDS011;2338;49.602;8.722;2023-09-19T06:47:09;9.37;;;3.03;;
4650;SDS011;2338;49.602;8.722;2023-09-19T06:49:56;5.90;;;3.00;;
4650;SDS011;2338;49.602;8.722;2023-09-19T06:52:42;6.00;;;3.30;;
4650;SDS011;2338;49.602;8.722;2023-09-19T06:55:27;7.67;;;2.70;;
4650;SDS011;2338;49.602;8.722;2023-09-19T06:58:14;4.77;;;2.60;;
4650;SDS011;2338;49.602;8.722;2023-09-19T07:01:01;7.10;;;2.20;;
4650;SDS011;2338;49.602;8.722;2023-09-19T07:03:46;6.40;;;2.60;;
4650;SDS011;2338;49.602;8.722;2023-09-19T07:06:34;6.80;;;2.07;;
4650;SDS011;2338;49.602;8.722;2023-09-19T07:09:20;6.47;;;2.13;;
4650;SDS011;2338;49.602;8.722;2023-09-19T07:12:06;18.37;;;2.50;;
4650;SDS011;2338;49.602;8.722;2023-09-19T07:14:52;6.57;;;2.43;;
4650;SDS011;2338;49.602;8.722;2023-09-19T07:17:38;4.87;;;2.63;;
4650;SDS011;2338;49.602;8.722;2023-09-19T07:20:24;5.47;;;2.70;;
4650;SDS011;2338;49.602;8.722;2023-09-19T07:23:12;5.03;;;2.40;;
4650;SDS011;2338;49.602;8.722;2023-09-19T07:25:59;6.63;;;2.13;;
4650;SDS011;2338;49.602;8.722;2023-09-19T07:28:45;7.20;;;2.10;;
4650;SDS011;2338;49.602;8.722;2023-09-19T07:31:30;4.57;;;2.00;;
4650;SDS011;2338;49.602;8.722;2023-09-19T07:34:17;5.83;;;2.20;;
4650;SDS011;2338;49.602;8.722;2023-09-19T07:37:04;10.30;;;2.53;;
4650;SDS011;2338;49.602;8.722;2023-09-19T07:39:52;4.13;;;2.30;;
4650;SDS011;2338;49.602;8.722;2023-09-19T07:42:37;3.43;;;1.73;;
4650;SDS011;2338;49.602;8.722;2023-09-19T07:45:24;7.83;;;2.60;;
4650;SDS011;2338;49.602;8.722;2023-09-19T07:48:10;5.10;;;2.10;;
4650;SDS011;2338;49.602;8.722;2023-09-19T07:51:01;3.40;;;1.90;;
4650;SDS011;2338;49.602;8.722;2023-09-19T07:53:48;4.60;;;1.77;;
4650;SDS011;2338;49.602;8.722;2023-09-19T07:56:35;4.90;;;2.27;;
4650;SDS011;2338;49.602;8.722;2023-09-19T07:59:21;9.63;;;2.30;;
4650;SDS011;2338;49.602;8.722;2023-09-19T08:02:07;5.30;;;2.10;;
4650;SDS011;2338;49.602;8.722;2023-09-19T08:04:59;7.77;;;2.30;;
4650;SDS011;2338;49.602;8.722;2023-09-19T08:07:49;6.40;;;2.70;;
4650;SDS011;2338;49.602;8.722;2023-09-19T08:10:36;7.63;;;2.40;;
4650;SDS011;2338;49.602;8.722;2023-09-19T08:13:25;5.07;;;2.33;;
4650;SDS011;2338;49.602;8.722;2023-09-19T08:16:11;4.90;;;2.70;;
4650;SDS011;2338;49.602;8.722;2023-09-19T08:18:58;6.97;;;3.37;;
4650;SDS011;2338;49.602;8.722;2023-09-19T08:21:44;3.10;;;2.30;;
4650;SDS011;2338;49.602;8.722;2023-09-19T08:24:49;7.67;;;2.87;;
4650;SDS011;2338;49.602;8.722;2023-09-19T08:27:35;4.20;;;3.00;;
4650;SDS011;2338;49.602;8.722;2023-09-19T08:30:22;4.73;;;2.43;;
4650;SDS011;2338;49.602;8.722;2023-09-19T08:33:11;5.90;;;2.53;;
4650;SDS011;2338;49.602;8.722;2023-09-19T08:35:59;6.07;;;2.83;;
4650;SDS011;2338;49.602;8.722;2023-09-19T08:38:45;7.63;;;3.43;;
4650;SDS011;2338;49.602;8.722;2023-09-19T08:41:30;6.10;;;2.80;;
4650;SDS011;2338;49.602;8.722;2023-09-19T08:44:16;5.77;;;3.00;;
4650;SDS011;2338;49.602;8.722;2023-09-19T08:47:07;5.90;;;2.60;;
4650;SDS011;2338;49.602;8.722;2023-09-19T08:49:59;6.20;;;3.17;;
4650;SDS011;2338;49.602;8.722;2023-09-19T08:52:50;4.63;;;2.93;;
4650;SDS011;2338;49.602;8.722;2023-09-19T08:55:38;6.60;;;3.40;;
4650;SDS011;2338;49.602;8.722;2023-09-19T08:58:27;3.80;;;2.90;;
4650;SDS011;2338;49.602;8.722;2023-09-19T09:01:17;7.00;;;3.17;;
4650;SDS011;2338;49.602;8.722;2023-09-19T09:04:09;5.63;;;2.90;;
4650;SDS011;2338;49.602;8.722;2023-09-19T09:06:56;5.27;;;2.90;;
4650;SDS011;2338;49.602;8.722;2023-09-19T09:09:42;6.13;;;3.00;;
4650;SDS011;2338;49.602;8.722;2023-09-19T09:12:29;6.67;;;3.40;;
4650;SDS011;2338;49.602;8.722;2023-09-19T09:15:15;5.40;;;2.80;;
4650;SDS011;2338;49.602;8.722;2023-09-19T09:18:05;5.70;;;2.50;;
4650;SDS011;2338;49.602;8.722;2023-09-19T09:20:53;5.50;;;2.37;;
4650;SDS011;2338;49.602;8.722;2023-09-19T09:23:39;9.63;;;3.30;;
4650;SDS011;2338;49.602;8.722;2023-09-19T09:26:40;4.47;;;2.63;;
4650;SDS011;2338;49.602;8.722;2023-09-19T09:29:43;7.70;;;2.93;;
4650;SDS011;2338;49.602;8.722;2023-09-19T09:32:31;4.57;;;2.60;;
4650;SDS011;2338;49.602;8.722;2023-09-19T09:35:19;5.23;;;2.43;;
4650;SDS011;2338;49.602;8.722;2023-09-19T09:38:06;9.83;;;2.77;;
4650;SDS011;2338;49.602;8.722;2023-09-19T09:40:54;6.50;;;3.20;;
4650;SDS011;2338;49.602;8.722;2023-09-19T09:43:45;6.90;;;3.00;;
4650;SDS011;2338;49.602;8.722;2023-09-19T09:46:32;7.07;;;2.70;;
4650;SDS011;2338;49.602;8.722;2023-09-19T09:49:35;7.10;;;2.63;;
4650;SDS011;2338;49.602;8.722;2023-09-19T09:52:22;3.97;;;2.90;;
4650;SDS011;2338;49.602;8.722;2023-09-19T09:55:10;8.80;;;2.73;;
4650;SDS011;2338;49.602;8.722;2023-09-19T10:01:07;4.50;;;2.70;;
4650;SDS011;2338;49.602;8.722;2023-09-19T10:03:56;9.63;;;2.60;;
4650;SDS011;2338;49.602;8.722;2023-09-19T10:06:44;8.03;;;2.33;;
4650;SDS011;2338;49.602;8.722;2023-09-19T10:09:44;5.27;;;2.50;;
4650;SDS011;2338;49.602;8.722;2023-09-19T10:12:32;6.07;;;2.40;;
4650;SDS011;2338;49.602;8.722;2023-09-19T10:15:19;8.20;;;2.10;;
4650;SDS011;2338;49.602;8.722;2023-09-19T10:18:05;10.60;;;2.80;;
4650;SDS011;2338;49.602;8.722;2023-09-19T10:20:52;5.53;;;2.57;;
4650;SDS011;2338;49.602;8.722;2023-09-19T10:23:38;7.13;;;3.23;;
4650;SDS011;2338;49.602;8.722;2023-09-19T10:26:28;5.03;;;2.10;;
4650;SDS011;2338;49.602;8.722;2023-09-19T10:29:17;4.37;;;2.37;;
4650;SDS011;2338;49.602;8.722;2023-09-19T10:32:03;8.70;;;2.40;;
4650;SDS011;2338;49.602;8.722;2023-09-19T10:34:52;5.77;;;2.43;;
4650;SDS011;2338;49.602;8.722;2023-09-19T10:37:40;10.80;;;3.07;;
4650;SDS011;2338;49.602;8.722;2023-09-19T10:40:29;6.50;;;2.10;;
4650;SDS011;2338;49.602;8.722;2023-09-19T10:43:16;8.27;;;2.50;;
4650;SDS011;2338;49.602;8.722;2023-09-19T10:46:06;20.30;;;3.50;;
4650;SDS011;2338;49.602;8.722;2023-09-19T10:48:54;5.37;;;2.63;;
4650;SDS011;2338;49.602;8.722;2023-09-19T10:51:44;4.70;;;2.20;;
4650;SDS011;2338;49.602;8.722;2023-09-19T10:54:33;10.30;;;2.30;;
4650;SDS011;2338;49.602;8.722;2023-09-19T10:57:23;6.10;;;2.50;;
4650;SDS011;2338;49.602;8.722;2023-09-19T11:00:11;5.33;;;2.10;;
4650;SDS011;2338;49.602;8.722;2023-09-19T11:03:21;3.00;;;1.70;;
4650;SDS011;2338;49.602;8.722;2023-09-19T11:06:15;7.70;;;2.10;;
4650;SDS011;2338;49.602;8.722;2023-09-19T11:09:03;6.87;;;1.80;;
4650;SDS011;2338;49.602;8.722;2023-09-19T11:12:00;3.87;;;2.03;;
4650;SDS011;2338;49.602;8.722;2023-09-19T11:14:46;9.17;;;1.97;;
4650;SDS011;2338;49.602;8.722;2023-09-19T11:17:32;3.77;;;2.30;;
4650;SDS011;2338;49.602;8.722;2023-09-19T11:20:20;5.03;;;2.17;;
4650;SDS011;2338;49.602;8.722;2023-09-19T11:23:19;4.40;;;1.93;;
4650;SDS011;2338;49.602;8.722;2023-09-19T11:26:13;5.70;;;1.93;;
4650;SDS011;2338;49.602;8.722;2023-09-19T11:29:27;4.87;;;2.13;;
4650;SDS011;2338;49.602;8.722;2023-09-19T11:32:15;3.93;;;1.50;;
4650;SDS011;2338;49.602;8.722;2023-09-19T11:35:06;7.17;;;1.70;;
4650;SDS011;2338;49.602;8.722;2023-09-19T11:38:03;8.97;;;2.10;;
4650;SDS011;2338;49.602;8.722;2023-09-19T11:44:33;3.93;;;1.60;;
4650;SDS011;2338;49.602;8.722;2023-09-19T11:47:22;8.40;;;3.03;;
4650;SDS011;2338;49.602;8.722;2023-09-19T11:50:09;4.70;;;1.90;;
4650;SDS011;2338;49.602;8.722;2023-09-19T11:52:55;7.03;;;1.50;;
4650;SDS011;2338;49.602;8.722;2023-09-19T11:55:42;8.90;;;2.03;;
4650;SDS011;2338;49.602;8.722;2023-09-19T11:58:29;6.20;;;1.77;;
4650;SDS011;2338;49.602;8.722;2023-09-19T12:01:22;3.50;;;1.40;;
4650;SDS011;2338;49.602;8.722;2023-09-19T12:04:10;4.53;;;1.60;;
4650;SDS011;2338;49.602;8.722;2023-09-19T12:06:58;5.67;;;1.40;;
4650;SDS011;2338;49.602;8.722;2023-09-19T12:09:44;5.00;;;1.50;;
4650;SDS011;2338;49.602;8.722;2023-09-19T12:12:33;4.47;;;1.60;;
4650;SDS011;2338;49.602;8.722;2023-09-19T12:15:22;2.70;;;1.23;;
4650;SDS011;2338;49.602;8.722;2023-09-19T12:18:25;7.30;;;1.80;;
4650;SDS011;2338;49.602;8.722;2023-09-19T12:21:23;8.77;;;2.13;;
4650;SDS011;2338;49.602;8.722;2023-09-19T12:24:14;8.03;;;1.40;;
4650;SDS011;2338;49.602;8.722;2023-09-19T12:27:04;4.00;;;1.50;;
4650;SDS011;2338;49.602;8.722;2023-09-19T12:29:51;3.50;;;1.93;;
4650;SDS011;2338;49.602;8.722;2023-09-19T12:32:39;13.77;;;1.47;;
4650;SDS011;2338;49.602;8.722;2023-09-19T12:35:28;4.20;;;2.00;;
4650;SDS011;2338;49.602;8.722;2023-09-19T12:38:24;4.47;;;1.50;;
4650;SDS011;2338;49.602;8.722;2023-09-19T12:41:12;4.80;;;1.80;;
4650;SDS011;2338;49.602;8.722;2023-09-19T12:43:58;7.53;;;1.33;;
4650;SDS011;2338;49.602;8.722;2023-09-19T12:51:48;3.93;;;1.73;;
4650;SDS011;2338;49.602;8.722;2023-09-19T12:54:42;6.50;;;2.03;;
4650;SDS011;2338;49.602;8.722;2023-09-19T12:57:29;3.37;;;1.37;;
4650;SDS011;2338;49.602;8.722;2023-09-19T13:00:17;5.70;;;1.43;;
4650;SDS011;2338;49.602;8.722;2023-09-19T13:03:11;4.40;;;1.90;;
4650;SDS011;2338;49.602;8.722;2023-09-19T13:06:00;3.70;;;1.20;;
4650;SDS011;2338;49.602;8.722;2023-09-19T13:08:49;2.90;;;1.37;;
4650;SDS011;2338;49.602;8.722;2023-09-19T13:11:53;3.30;;;1.40;;
4650;SDS011;2338;49.602;8.722;2023-09-19T13:14:39;10.83;;;2.10;;
4650;SDS011;2338;49.602;8.722;2023-09-19T13:17:42;3.47;;;1.30;;
4650;SDS011;2338;49.602;8.722;2023-09-19T13:20:28;5.00;;;2.00;;
4650;SDS011;2338;49.602;8.722;2023-09-19T13:23:25;4.87;;;1.70;;
4650;SDS011;2338;49.602;8.722;2023-09-19T13:26:13;3.07;;;1.47;;
4650;SDS011;2338;49.602;8.722;2023-09-19T13:28:59;3.73;;;1.80;;
4650;SDS011;2338;49.602;8.722;2023-09-19T13:31:47;4.67;;;1.80;;
4650;SDS011;2338;49.602;8.722;2023-09-19T13:34:33;4.90;;;1.53;;
4650;SDS011;2338;49.602;8.722;2023-09-19T13:37:19;5.97;;;1.80;;
4650;SDS011;2338;49.602;8.722;2023-09-19T13:40:06;3.90;;;1.40;;
4650;SDS011;2338;49.602;8.722;2023-09-19T13:42:54;3.40;;;1.50;;
4650;SDS011;2338;49.602;8.722;2023-09-19T13:45:40;4.47;;;1.60;;
4650;SDS011;2338;49.602;8.722;2023-09-19T13:48:26;3.23;;;1.57;;
4650;SDS011;2338;49.602;8.722;2023-09-19T13:51:13;4.60;;;1.53;;
4650;SDS011;2338;49.602;8.722;2023-09-19T13:53:59;4.27;;;1.30;;
4650;SDS011;2338;49.602;8.722;2023-09-19T13:56:45;5.33;;;1.80;;
4650;SDS011;2338;49.602;8.722;2023-09-19T13:59:32;3.70;;;1.60;;
4650;SDS011;2338;49.602;8.722;2023-09-19T14:02:18;4.63;;;1.70;;
4650;SDS011;2338;49.602;8.722;2023-09-19T14:05:06;4.37;;;1.50;;
4650;SDS011;2338;49.602;8.722;2023-09-19T14:07:52;6.23;;;1.90;;
4650;SDS011;2338;49.602;8.722;2023-09-19T14:10:39;4.70;;;1.33;;
4650;SDS011;2338;49.602;8.722;2023-09-19T14:13:25;2.93;;;1.53;;
4650;SDS011;2338;49.602;8.722;2023-09-19T14:16:13;4.80;;;1.80;;
4650;SDS011;2338;49.602;8.722;2023-09-19T14:18:58;3.47;;;1.60;;
4650;SDS011;2338;49.602;8.722;2023-09-19T14:21:44;4.60;;;2.00;;
4650;SDS011;2338;49.602;8.722;2023-09-19T14:24:30;3.33;;;1.20;;
4650;SDS011;2338;49.602;8.722;2023-09-19T14:27:15;8.03;;;1.70;;
4650;SDS011;2338;49.602;8.722;2023-09-19T14:30:01;3.27;;;1.50;;
4650;SDS011;2338;49.602;8.722;2023-09-19T14:32:49;9.77;;;1.60;;
4650;SDS011;2338;49.602;8.722;2023-09-19T14:35:36;5.63;;;1.57;;
4650;SDS011;2338;49.602;8.722;2023-09-19T14:38:22;3.60;;;1.87;;
4650;SDS011;2338;49.602;8.722;2023-09-19T14:41:08;2.90;;;1.43;;
4650;SDS011;2338;49.602;8.722;2023-09-19T14:43:54;2.77;;;1.20;;
4650;SDS011;2338;49.602;8.722;2023-09-19T14:46:39;5.43;;;1.80;;
4650;SDS011;2338;49.602;8.722;2023-09-19T14:49:27;4.73;;;1.70;;
4650;SDS011;2338;49.602;8.722;2023-09-19T14:52:12;5.67;;;1.57;;
4650;SDS011;2338;49.602;8.722;2023-09-19T14:54:59;11.30;;;1.63;;
4650;SDS011;2338;49.602;8.722;2023-09-19T14:57:48;5.00;;;1.93;;
4650;SDS011;2338;49.602;8.722;2023-09-19T15:00:35;2.17;;;1.13;;
4650;SDS011;2338;49.602;8.722;2023-09-19T15:03:21;3.83;;;1.50;;
4650;SDS011;2338;49.602;8.722;2023-09-19T15:06:08;4.30;;;1.60;;
4650;SDS011;2338;49.602;8.722;2023-09-19T15:08:57;2.70;;;1.37;;
4650;SDS011;2338;49.602;8.722;2023-09-19T15:11:43;3.60;;;1.23;;
4650;SDS011;2338;49.602;8.722;2023-09-19T15:14:29;2.70;;;1.30;;
4650;SDS011;2338;49.602;8.722;2023-09-19T15:17:14;5.10;;;1.50;;
4650;SDS011;2338;49.602;8.722;2023-09-19T15:20:00;4.17;;;1.63;;
4650;SDS011;2338;49.602;8.722;2023-09-19T15:22:51;2.87;;;1.40;;
4650;SDS011;2338;49.602;8.722;2023-09-19T15:25:36;2.70;;;1.27;;
4650;SDS011;2338;49.602;8.722;2023-09-19T15:28:24;3.47;;;1.30;;
4650;SDS011;2338;49.602;8.722;2023-09-19T15:31:10;2.20;;;1.17;;
4650;SDS011;2338;49.602;8.722;2023-09-19T15:33:56;6.63;;;1.53;;
4650;SDS011;2338;49.602;8.722;2023-09-19T15:36:42;4.90;;;1.90;;
4650;SDS011;2338;49.602;8.722;2023-09-19T15:39:31;3.83;;;1.40;;
4650;SDS011;2338;49.602;8.722;2023-09-19T15:42:18;5.20;;;1.60;;
4650;SDS011;2338;49.602;8.722;2023-09-19T15:45:04;4.17;;;1.40;;
4650;SDS011;2338;49.602;8.722;2023-09-19T15:47:50;4.33;;;1.50;;
4650;SDS011;2338;49.602;8.722;2023-09-19T15:50:36;4.90;;;1.87;;
4650;SDS011;2338;49.602;8.722;2023-09-19T15:53:22;4.03;;;1.40;;
4650;SDS011;2338;49.602;8.722;2023-09-19T15:56:09;2.53;;;1.30;;
4650;SDS011;2338;49.602;8.722;2023-09-19T15:58:55;3.63;;;1.47;;
4650;SDS011;2338;49.602;8.722;2023-09-19T16:01:40;6.90;;;1.90;;
4650;SDS011;2338;49.602;8.722;2023-09-19T16:04:28;5.13;;;1.70;;
4650;SDS011;2338;49.602;8.722;2023-09-19T16:07:14;3.73;;;1.37;;
4650;SDS011;2338;49.602;8.722;2023-09-19T16:10:02;3.93;;;1.40;;
4650;SDS011;2338;49.602;8.722;2023-09-19T16:12:49;4.00;;;1.57;;
4650;SDS011;2338;49.602;8.722;2023-09-19T16:15:39;2.97;;;1.47;;
4650;SDS011;2338;49.602;8.722;2023-09-19T16:18:27;3.50;;;1.40;;
4650;SDS011;2338;49.602;8.722;2023-09-19T16:21:15;2.80;;;1.23;;
4650;SDS011;2338;49.602;8.722;2023-09-19T16:24:02;3.10;;;1.27;;
4650;SDS011;2338;49.602;8.722;2023-09-19T16:26:48;5.50;;;1.80;;
4650;SDS011;2338;49.602;8.722;2023-09-19T16:29:36;3.77;;;1.40;;
4650;SDS011;2338;49.602;8.722;2023-09-19T16:32:22;6.53;;;2.43;;
4650;SDS011;2338;49.602;8.722;2023-09-19T16:35:07;3.30;;;1.33;;
4650;SDS011;2338;49.602;8.722;2023-09-19T16:37:53;3.53;;;1.47;;
4650;SDS011;2338;49.602;8.722;2023-09-19T16:40:39;2.93;;;1.40;;
4650;SDS011;2338;49.602;8.722;2023-09-19T16:43:26;3.20;;;1.40;;
4650;SDS011;2338;49.602;8.722;2023-09-19T16:46:14;4.43;;;1.50;;
4650;SDS011;2338;49.602;8.722;2023-09-19T16:49:01;4.77;;;1.53;;
4650;SDS011;2338;49.602;8.722;2023-09-19T16:51:48;5.57;;;1.70;;
4650;SDS011;2338;49.602;8.722;2023-09-19T16:54:34;5.33;;;1.60;;
4650;SDS011;2338;49.602;8.722;2023-09-19T16:57:20;2.53;;;1.10;;
4650;SDS011;2338;49.602;8.722;2023-09-19T17:00:06;6.13;;;1.63;;
4650;SDS011;2338;49.602;8.722;2023-09-19T17:02:55;3.30;;;1.43;;
4650;SDS011;2338;49.602;8.722;2023-09-19T17:05:41;3.07;;;1.33;;
4650;SDS011;2338;49.602;8.722;2023-09-19T17:08:28;3.87;;;1.70;;
4650;SDS011;2338;49.602;8.722;2023-09-19T17:11:14;4.47;;;1.40;;
4650;SDS011;2338;49.602;8.722;2023-09-19T17:14:01;5.10;;;1.30;;
4650;SDS011;2338;49.602;8.722;2023-09-19T17:16:47;3.10;;;1.50;;
4650;SDS011;2338;49.602;8.722;2023-09-19T17:19:34;2.93;;;1.40;;
4650;SDS011;2338;49.602;8.722;2023-09-19T17:22:20;7.67;;;1.93;;
4650;SDS011;2338;49.602;8.722;2023-09-19T17:25:05;2.97;;;1.37;;
4650;SDS011;2338;49.602;8.722;2023-09-19T17:27:52;4.60;;;1.50;;
4650;SDS011;2338;49.602;8.722;2023-09-19T17:30:38;8.63;;;1.77;;
4650;SDS011;2338;49.602;8.722;2023-09-19T17:33:24;3.07;;;1.17;;
4650;SDS011;2338;49.602;8.722;2023-09-19T17:36:12;2.10;;;1.00;;